WetterOnline ( https://www.wetteronline.de )

Wetter aktuell Offenburg

Aktuelles Wetter: Lahr (156m)

6-stündlich | Neueste Meldungen
Ortszeit Temperatur Wetter
Mo, 24.06. 20:00 25.7° C wolkig
Mo, 24.06. 14:00 27.1° C leicht bewölkt
Mo, 24.06. 8:00 17.5° C wolkenlos
Mo, 24.06. 2:00 16.6° C leicht bewölkt
So, 23.06. 20:00 21.9° C bewölkt
So, 23.06. 14:00 20.6° C bewölkt
So, 23.06. 8:00 16.0° C bedeckt
So, 23.06. 2:00 14.3° C bedeckt
Ortszeit Temperatur Wetter
Mo, 24.06. 21:00 23.8° C wolkenlos
Mo, 24.06. 20:50 23.8° C wolkenlos
Mo, 24.06. 20:40 24.2° C wolkenlos
Mo, 24.06. 20:30 24.9° C wolkenlos
Mo, 24.06. 20:20 24.9° C wolkenlos
Mo, 24.06. 20:10 25.5° C fast wolkenlos
Mo, 24.06. 20:00 25.7° C wolkig
Mo, 24.06. 19:30 26.4° C leicht bewölkt
Mo, 24.06. 19:00 26.7° C leicht bewölkt
Mo, 24.06. 18:30 27.1° C fast wolkenlos
Mo, 24.06. 18:00 26.7° C leicht bewölkt
Mo, 24.06. 17:30 26.6° C leicht bewölkt
Ortszeit Relative Feuchte Sichtweite
Mo, 24.06. 20:00 53% 60 km
Mo, 24.06. 14:00 51% 16 km
Mo, 24.06. 8:00 84% 30 km
Mo, 24.06. 2:00 94% 26 km
So, 23.06. 20:00 65% 45 km
So, 23.06. 14:00 64% 55 km
So, 23.06. 8:00 87% >70 km
So, 23.06. 2:00 94% 50 km
Ortszeit Relative Feuchte Sichtweite
Mo, 24.06. 21:00 59% 65 km
Mo, 24.06. 20:50 59% -
Mo, 24.06. 20:40 57% -
Mo, 24.06. 20:30 56% 60 km
Mo, 24.06. 20:20 56% -
Mo, 24.06. 20:10 53% -
Mo, 24.06. 20:00 53% 60 km
Mo, 24.06. 19:30 52% 50 km
Mo, 24.06. 19:00 51% >70 km
Mo, 24.06. 18:30 50% 50 km
Mo, 24.06. 18:00 52% 65 km
Mo, 24.06. 17:30 53% 60 km
Ortszeit Niederschlagsmenge Niederschlagsart
Mo, 24.06. 20:00 0.0 l/m2 in 12 Std. -
Mo, 24.06. 14:00 0.0 l/m2 in 6 Std. -
Mo, 24.06. 8:00 0.1 l/m2 in 12 Std. -
Mo, 24.06. 2:00 0.1 l/m2 in 6 Std. Regen
So, 23.06. 20:00 0.0 l/m2 in 12 Std. -
So, 23.06. 14:00 0.0 l/m2 in 6 Std. -
So, 23.06. 8:00 0.0 l/m2 in 12 Std. -
So, 23.06. 2:00 0.0 l/m2 in 6 Std. -
Ortszeit Niederschlagsmenge Niederschlagsart
Mo, 24.06. 21:00 0.0 l/m2 in 1 Std. -
Mo, 24.06. 20:50 keine Meldung -
Mo, 24.06. 20:40 keine Meldung -
Mo, 24.06. 20:30 0.0 l/m2 in 30 Min -
Mo, 24.06. 20:20 keine Meldung -
Mo, 24.06. 20:10 keine Meldung -
Mo, 24.06. 20:00 0.0 l/m2 in 1 Std. -
Mo, 24.06. 19:30 0.0 l/m2 in 30 Min -
Mo, 24.06. 19:00 0.0 l/m2 in 1 Std. -
Mo, 24.06. 18:30 0.0 l/m2 in 30 Min -
Mo, 24.06. 18:00 0.0 l/m2 in 1 Std. -
Mo, 24.06. 17:30 0.0 l/m2 in 30 Min -
Ortszeit Stärke Spitze Richtung
km/h Bft. km/h Grad Sektor
Mo, 24.06. 20:00 22 4 43 10° N
Mo, 24.06. 14:00 24 4 37 10° N
Mo, 24.06. 8:00 13 3 19 20° N
Mo, 24.06. 2:00 9 2 26 40° NO
So, 23.06. 20:00 17 3 26 30° NO
So, 23.06. 14:00 11 2 22 350° N
So, 23.06. 8:00 0 0 7 - -
So, 23.06. 2:00 0 0 18 - -
Ortszeit Stärke Spitze Richtung
km/h Bft. km/h Grad Sektor
Mo, 24.06. 21:00 14 3 36 20° N
Mo, 24.06. 20:50 14 3 - 20° N
Mo, 24.06. 20:40 18 3 - 20° N
Mo, 24.06. 20:30 14 3 36 30° NO
Mo, 24.06. 20:20 14 3 - 30° NO
Mo, 24.06. 20:10 18 3 - 30° NO
Mo, 24.06. 20:00 22 4 36 10° N
Mo, 24.06. 19:30 22 4 36 10° N
Mo, 24.06. 19:00 24 4 39 20° N
Mo, 24.06. 18:30 25 4 40 10° N
Mo, 24.06. 18:00 25 4 40 10° N
Mo, 24.06. 17:30 22 4 36 20° N
Ortszeit Untergrenze Bedeckung Gattung
total tief tief mittel hoch
Mo, 24.06. 20:00 1800 m 5/8 5/8 - - -
Mo, 24.06. 14:00 1800 m 2/8 2/8 - - -
Mo, 24.06. 8:00 - 0/8 0/8 - - -
Mo, 24.06. 2:00 2400 m 2/8 2/8 - - -
So, 23.06. 20:00 2700 m 7/8 7/8 - - -
So, 23.06. 14:00 1020 m 7/8 7/8 - - -
So, 23.06. 8:00 1800 m 8/8 8/8 - - -
So, 23.06. 2:00 1170 m 8/8 8/8 - - -
Ortszeit Bedeckungsgrad in Achtel und Wolkenuntergrenze
Mo, 24.06. 21:00 keine Wolken
Mo, 24.06. 20:50 keine Wolken
Mo, 24.06. 20:40 keine Wolken
Mo, 24.06. 20:30 keine Wolken
Mo, 24.06. 20:20 keine Wolken
Mo, 24.06. 20:10 1
Mo, 24.06. 20:00 5(1800m)
Mo, 24.06. 19:30 2(2400m)
Mo, 24.06. 19:00 2(1800m)
Mo, 24.06. 18:30 1(2100m)
Mo, 24.06. 18:00 3(1800m) 4(2400m)
Mo, 24.06. 17:30 4(1800m) 4(2400m)
Ortszeit Luftdruck NN (hPa) Tendenz (hPa in 3 Std.)
Mo, 24.06. 20:00 1014 - 0,4
Mo, 24.06. 14:00 1015 - 1,7
Mo, 24.06. 8:00 1018 - 0,1
Mo, 24.06. 2:00 1019 - 0,6
So, 23.06. 20:00 1018 0,0
So, 23.06. 14:00 1019 + 0,1
So, 23.06. 8:00 1019 + 1,2
So, 23.06. 2:00 1018 + 0,1
Ortszeit Luftdruck NN (hPa) Tendenz (hPa in 3 Std.)
Mo, 24.06. 21:00 1014 + 0,1
Mo, 24.06. 20:50 1014 keine Meldung
Mo, 24.06. 20:40 1014 keine Meldung
Mo, 24.06. 20:30 1014 - 0,2
Mo, 24.06. 20:20 1014 keine Meldung
Mo, 24.06. 20:10 1014 keine Meldung
Mo, 24.06. 20:00 1014 - 0,4
Mo, 24.06. 19:30 1013 - 0,8
Mo, 24.06. 19:00 1013 - 1,0
Mo, 24.06. 18:30 1013 - 1,2
Mo, 24.06. 18:00 1014 - 1,2
Mo, 24.06. 17:30 1014 - 1,0
Ortszeit Schneehöhe (cm)
Mo, 24.06. 20:00 0
Mo, 24.06. 14:00 0
Mo, 24.06. 8:00 0
Mo, 24.06. 2:00 0
So, 23.06. 20:00 0
So, 23.06. 14:00 0
So, 23.06. 8:00 0
So, 23.06. 2:00 0
Ortszeit Schneehöhe (cm)
Mo, 24.06. 21:00 0
Mo, 24.06. 20:50 0
Mo, 24.06. 20:40 -
Mo, 24.06. 20:30 0
Mo, 24.06. 20:20 0
Mo, 24.06. 20:10 -
Mo, 24.06. 20:00 0
Mo, 24.06. 19:30 0
Mo, 24.06. 19:00 0
Mo, 24.06. 18:30 0
Mo, 24.06. 18:00 0
Mo, 24.06. 17:30 0
Link zu dieser Seite / Seite empfehlen

Das Wetter in ...